Time;durP1;ratioP1;P1;durP2;ratioP2;P2;SDS_P1;SDS_P2;PMS_P1;PMS_P2;Temp;Humidity;BMP_temperature;BMP_pressure;BME280_temperature;BME280_humidity;BME280_pressure;Samples;Min_cycle;Max_cycle;Signal;HPM_P1;HPM_P2
2022/12/17 13:07:22;;;;;;;22.52;12.65;;;;;;;;;;5003966;28;20230;-44
2022/12/17 13:09:49;;;;;;;21.85;13.30;;;;;;;;;;5003504;28;20259;-42
2022/12/17 13:12:21;;;;;;;22.40;13.05;;;;;;;;;;5002845;28;20609;-44
2022/12/17 13:14:48;;;;;;;20.75;13.35;;;;;;;;;;5003113;28;20215;-43
2022/12/17 13:17:17;;;;;;;25.83;13.30;;;;;;;;;;5000755;28;20173;-43
2022/12/17 13:19:43;;;;;;;20.95;11.82;;;;;;;;;;5007932;28;20242;-44
2022/12/17 13:22:10;;;;;;;27.17;12.83;;;;;;;;;;5002846;28;20752;-42
2022/12/17 13:24:37;;;;;;;17.63;12.43;;;;;;;;;;4999905;28;20508;-43
2022/12/17 13:27:03;;;;;;;22.55;13.35;;;;;;;;;;5002437;28;20251;-43
2022/12/17 13:29:33;;;;;;;19.57;13.33;;;;;;;;;;5001475;28;20256;-43
2022/12/17 13:32:02;;;;;;;21.55;13.02;;;;;;;;;;5004684;28;20495;-43
2022/12/17 13:34:31;;;;;;;24.92;13.90;;;;;;;;;;5004111;28;20228;-42
2022/12/17 13:37:12;;;;;;;18.55;12.73;;;;;;;;;;5005849;28;20173;-43
2022/12/17 13:39:44;;;;;;;25.23;13.95;;;;;;;;;;5004353;28;20222;-43
2022/12/17 13:42:16;;;;;;;22.92;14.00;;;;;;;;;;4999244;28;20223;-43
2022/12/17 13:44:44;;;;;;;23.98;12.95;;;;;;;;;;5003679;28;20275;-43
2022/12/17 13:47:19;;;;;;;24.55;14.50;;;;;;;;;;5003911;28;20173;-43
2022/12/17 13:49:50;;;;;;;28.58;15.40;;;;;;;;;;5001259;28;20268;-44
2022/12/17 13:52:20;;;;;;;21.73;14.02;;;;;;;;;;5001682;28;20700;-45
2022/12/17 13:54:46;;;;;;;17.60;13.10;;;;;;;;;;5002381;28;20204;-45
2022/12/17 13:57:17;;;;;;;24.20;14.45;;;;;;;;;;5000797;28;20184;-44
2022/12/17 13:59:53;;;;;;;20.65;13.13;;;;;;;;;;5000994;28;20208;-44
2022/12/17 14:02:27;;;;;;;20.63;12.43;;;;;;;;;;5000938;28;20247;-45
2022/12/17 14:04:54;;;;;;;24.65;11.43;;;;;;;;;;5005557;28;20178;-44
2022/12/17 14:07:20;;;;;;;21.85;13.07;;;;;;;;;;4997710;28;20650;-44
2022/12/17 14:09:48;;;;;;;20.73;12.20;;;;;;;;;;4997034;28;20183;-44
2022/12/17 14:12:20;;;;;;;21.65;12.20;;;;;;;;;;5005273;28;20267;-44
2022/12/17 14:14:47;;;;;;;18.52;12.60;;;;;;;;;;5002283;28;20674;-45
2022/12/17 14:17:17;;;;;;;16.75;12.25;;;;;;;;;;5003703;28;20180;-45
2022/12/17 14:19:43;;;;;;;21.60;13.13;;;;;;;;;;5001126;28;20185;-45
2022/12/17 14:22:16;;;;;;;21.17;13.88;;;;;;;;;;4991748;28;20933;-46
2022/12/17 14:24:42;;;;;;;22.73;12.77;;;;;;;;;;4989661;28;20177;-46
2022/12/17 14:27:21;;;;;;;24.13;13.97;;;;;;;;;;4993191;28;20172;-46
2022/12/17 14:29:47;;;;;;;23.40;13.70;;;;;;;;;;4990492;28;21139;-44
2022/12/17 14:32:24;;;;;;;24.57;14.27;;;;;;;;;;4989024;28;20188;-45
2022/12/17 14:34:50;;;;;;;22.73;14.20;;;;;;;;;;4997571;28;20415;-45
2022/12/17 14:37:19;;;;;;;19.80;13.57;;;;;;;;;;4998451;28;20268;-45
2022/12/17 14:39:46;;;;;;;22.73;13.68;;;;;;;;;;4996797;28;20486;-44
2022/12/17 14:42:25;;;;;;;29.05;14.43;;;;;;;;;;4988163;28;20197;-45
2022/12/17 14:44:51;;;;;;;20.95;13.82;;;;;;;;;;4991253;28;20180;-45
2022/12/17 14:47:23;;;;;;;27.93;15.17;;;;;;;;;;4990732;28;20745;-45
2022/12/17 14:49:52;;;;;;;22.13;12.35;;;;;;;;;;4990817;28;20478;-45
2022/12/17 14:52:45;;;;;;;22.73;12.82;;;;;;;;;;4991912;28;20739;-45
2022/12/17 14:55:30;;;;;;;28.08;14.68;;;;;;;;;;4985069;28;20194;-45
2022/12/17 14:58:11;;;;;;;22.52;13.15;;;;;;;;;;4988086;28;20666;-45
2022/12/17 15:00:38;;;;;;;22.05;12.70;;;;;;;;;;4988660;28;20582;-45
2022/12/17 15:03:04;;;;;;;24.67;14.43;;;;;;;;;;4999289;28;20218;-44
2022/12/17 15:05:31;;;;;;;13.63;9.90;;;;;;;;;;5004696;28;20260;-45
2022/12/17 15:07:57;;;;;;;17.13;12.55;;;;;;;;;;4991288;28;20451;-44
2022/12/17 15:10:24;;;;;;;13.63;10.60;;;;;;;;;;4990955;28;20173;-44
2022/12/17 15:12:51;;;;;;;22.77;12.40;;;;;;;;;;4991888;28;20785;-45
2022/12/17 15:15:19;;;;;;;16.48;12.02;;;;;;;;;;4991479;28;20240;-44
2022/12/17 15:17:45;;;;;;;17.88;12.02;;;;;;;;;;4991520;28;20232;-45
2022/12/17 15:20:18;;;;;;;22.73;12.40;;;;;;;;;;4991514;28;20205;-45
2022/12/17 15:22:44;;;;;;;18.17;10.55;;;;;;;;;;4991815;28;20212;-45
2022/12/17 15:25:14;;;;;;;16.27;10.52;;;;;;;;;;4992302;28;20540;-45
2022/12/17 15:27:41;;;;;;;11.60;9.52;;;;;;;;;;4991771;28;20674;-44
2022/12/17 15:30:07;;;;;;;17.38;11.10;;;;;;;;;;4992054;28;20623;-45
2022/12/17 15:32:33;;;;;;;21.17;13.25;;;;;;;;;;4992081;28;20251;-45
2022/12/17 15:34:59;;;;;;;19.40;11.10;;;;;;;;;;4991814;28;20189;-45
2022/12/17 15:37:25;;;;;;;17.03;10.90;;;;;;;;;;4991892;28;20423;-45
2022/12/17 15:39:51;;;;;;;19.37;11.67;;;;;;;;;;4994508;28;20490;-45
2022/12/17 15:45:01;;;;;;;19.55;11.15;;;;;;;;;;4994529;28;20449;-45
2022/12/17 15:47:27;;;;;;;24.17;12.90;;;;;;;;;;5001356;28;20271;-45
2022/12/17 15:49:53;;;;;;;17.00;11.57;;;;;;;;;;5003627;28;20412;-45
2022/12/17 15:52:19;;;;;;;17.47;10.90;;;;;;;;;;5003139;28;20420;-45
2022/12/17 15:54:45;;;;;;;22.30;11.70;;;;;;;;;;5004468;28;20781;-44
2022/12/17 15:57:13;;;;;;;18.40;11.17;;;;;;;;;;5006795;28;20412;-45
2022/12/17 15:59:39;;;;;;;18.52;12.40;;;;;;;;;;5006721;28;20502;-45
2022/12/17 16:02:06;;;;;;;18.53;12.33;;;;;;;;;;5001003;28;20612;-45
2022/12/17 16:04:32;;;;;;;24.58;12.73;;;;;;;;;;4999155;28;20411;-44
2022/12/17 16:06:58;;;;;;;23.35;13.00;;;;;;;;;;5005672;28;20255;-45
2022/12/17 16:09:25;;;;;;;21.90;13.20;;;;;;;;;;5005234;28;20583;-45
2022/12/17 16:11:54;;;;;;;23.77;14.43;;;;;;;;;;5010409;28;20820;-45
2022/12/17 16:14:21;;;;;;;20.80;13.30;;;;;;;;;;5002759;28;20193;-44
2022/12/17 16:16:47;;;;;;;17.33;12.27;;;;;;;;;;5010655;28;20172;-45
2022/12/17 16:19:13;;;;;;;26.05;13.60;;;;;;;;;;5000292;28;20180;-44
2022/12/17 16:21:39;;;;;;;22.30;12.83;;;;;;;;;;5005555;28;20208;-45
2022/12/17 16:24:05;;;;;;;23.10;14.30;;;;;;;;;;5003852;28;20512;-44
2022/12/17 16:26:31;;;;;;;27.00;14.27;;;;;;;;;;5002078;28;20982;-45
2022/12/17 16:28:57;;;;;;;23.65;15.02;;;;;;;;;;5004716;28;20169;-45
2022/12/17 16:31:23;;;;;;;20.35;14.23;;;;;;;;;;5002760;28;20185;-45
2022/12/17 16:33:49;;;;;;;23.80;14.87;;;;;;;;;;5003009;28;20211;-45
2022/12/17 16:36:17;;;;;;;27.90;16.40;;;;;;;;;;5002293;28;20430;-45
2022/12/17 16:38:47;;;;;;;20.45;14.00;;;;;;;;;;5010764;28;20783;-45
2022/12/17 16:41:13;;;;;;;23.08;15.70;;;;;;;;;;5003192;28;20200;-45
2022/12/17 16:43:39;;;;;;;25.02;15.43;;;;;;;;;;4999614;28;20220;-45
2022/12/17 16:46:22;;;;;;;26.98;15.65;;;;;;;;;;5001987;28;20192;-45
2022/12/17 16:48:48;;;;;;;26.75;17.58;;;;;;;;;;5003948;28;20172;-45
2022/12/17 16:51:15;;;;;;;27.40;16.48;;;;;;;;;;5004881;28;20179;-45
2022/12/17 16:53:42;;;;;;;28.80;18.50;;;;;;;;;;4998728;28;20311;-45
2022/12/17 16:56:08;;;;;;;23.48;16.98;;;;;;;;;;5004675;28;20177;-45
2022/12/17 16:58:33;;;;;;;22.30;16.30;;;;;;;;;;5004296;28;20250;-44
2022/12/17 17:00:59;;;;;;;29.60;18.00;;;;;;;;;;4998041;28;20526;-44
2022/12/17 17:03:25;;;;;;;28.93;15.30;;;;;;;;;;5005317;28;20470;-44
2022/12/17 17:05:52;;;;;;;21.57;13.80;;;;;;;;;;5002649;28;20427;-44
2022/12/17 17:08:18;;;;;;;21.83;14.15;;;;;;;;;;5003193;28;20450;-45
2022/12/17 17:10:44;;;;;;;21.40;13.30;;;;;;;;;;5002861;28;20177;-45
2022/12/17 17:13:11;;;;;;;24.37;14.07;;;;;;;;;;5003074;28;20523;-45
2022/12/17 17:15:37;;;;;;;24.20;12.80;;;;;;;;;;5002371;28;20403;-45
2022/12/17 17:18:03;;;;;;;22.00;12.23;;;;;;;;;;5001530;28;20546;-45
2022/12/17 17:20:30;;;;;;;17.23;11.82;;;;;;;;;;5006367;28;20794;-45
2022/12/17 17:22:56;;;;;;;18.67;11.52;;;;;;;;;;4994802;28;20287;-45
2022/12/17 17:25:22;;;;;;;22.47;12.37;;;;;;;;;;4993258;28;20369;-44
2022/12/17 17:27:49;;;;;;;19.07;10.70;;;;;;;;;;4993251;28;20396;-45
2022/12/17 17:30:15;;;;;;;16.25;9.80;;;;;;;;;;4993499;28;20419;-45
2022/12/17 17:32:40;;;;;;;13.30;9.80;;;;;;;;;;4993282;28;20689;-45
2022/12/17 17:35:07;;;;;;;19.30;11.00;;;;;;;;;;4993221;28;20412;-45
2022/12/17 17:37:32;;;;;;;18.98;10.85;;;;;;;;;;4993442;28;20918;-45
2022/12/17 17:39:58;;;;;;;23.27;11.70;;;;;;;;;;4992935;28;20207;-45
2022/12/17 17:42:24;;;;;;;19.50;11.10;;;;;;;;;;4998857;28;21026;-45
2022/12/17 17:44:50;;;;;;;15.87;11.03;;;;;;;;;;5009881;28;20420;-44
2022/12/17 17:47:16;;;;;;;15.30;9.68;;;;;;;;;;4992909;28;20400;-45
2022/12/17 17:49:42;;;;;;;16.37;10.00;;;;;;;;;;4992982;28;20232;-45
2022/12/17 17:52:08;;;;;;;13.43;10.20;;;;;;;;;;4992903;28;20420;-45
2022/12/17 17:54:35;;;;;;;14.10;10.20;;;;;;;;;;4992582;28;20519;-45
2022/12/17 17:57:01;;;;;;;18.65;10.73;;;;;;;;;;4992731;28;20176;-46
2022/12/17 17:59:27;;;;;;;19.93;10.50;;;;;;;;;;4985373;28;20545;-45
2022/12/17 18:01:53;;;;;;;21.27;11.70;;;;;;;;;;4977957;28;20838;-45
2022/12/17 18:04:22;;;;;;;17.57;11.10;;;;;;;;;;4991727;28;20423;-45
2022/12/17 18:06:48;;;;;;;17.92;9.95;;;;;;;;;;4991683;28;20443;-44
2022/12/17 18:09:14;;;;;;;15.40;9.57;;;;;;;;;;4991894;28;20791;-45
2022/12/17 18:11:41;;;;;;;10.43;9.25;;;;;;;;;;4990887;28;20193;-44
2022/12/17 18:14:08;;;;;;;17.90;9.90;;;;;;;;;;4991559;28;20211;-45
2022/12/17 18:16:37;;;;;;;15.52;8.95;;;;;;;;;;4991646;28;20189;-44
2022/12/17 18:19:10;;;;;;;13.90;8.85;;;;;;;;;;4992181;28;20275;-45
2022/12/17 18:21:37;;;;;;;14.40;9.20;;;;;;;;;;4991726;28;20299;-45
2022/12/17 18:24:04;;;;;;;19.33;9.63;;;;;;;;;;4992009;28;20240;-45
2022/12/17 18:26:32;;;;;;;10.82;8.75;;;;;;;;;;4990536;28;20260;-45
2022/12/17 18:29:01;;;;;;;15.05;9.68;;;;;;;;;;4985605;28;20192;-45
2022/12/17 18:31:28;;;;;;;16.23;9.70;;;;;;;;;;4991999;28;20185;-45
2022/12/17 18:33:58;;;;;;;13.77;8.95;;;;;;;;;;4992554;28;20231;-45
2022/12/17 18:36:25;;;;;;;13.90;9.32;;;;;;;;;;4991968;28;20271;-45
2022/12/17 18:38:55;;;;;;;17.05;11.07;;;;;;;;;;4992909;28;20184;-42
2022/12/17 18:43:22;;;;;;;14.65;9.60;;;;;;;;;;4991008;28;20208;-42
2022/12/17 18:44:07;;;;;;;16.63;10.40;;;;;;;;;;4992036;28;20209;-43
2022/12/17 18:46:33;;;;;;;16.15;8.77;;;;;;;;;;4991780;28;20216;-45
2022/12/17 18:49:00;;;;;;;12.75;9.10;;;;;;;;;;4992460;28;20260;-45
2022/12/17 18:51:26;;;;;;;11.93;9.55;;;;;;;;;;4992384;28;20196;-44
2022/12/17 18:53:56;;;;;;;16.95;8.88;;;;;;;;;;4991409;28;20212;-44
2022/12/17 18:56:21;;;;;;;12.85;9.23;;;;;;;;;;4991112;28;20666;-44
2022/12/17 18:58:47;;;;;;;14.53;9.90;;;;;;;;;;4991962;28;20192;-44
2022/12/17 19:01:18;;;;;;;11.60;8.57;;;;;;;;;;4991255;28;20534;-44
2022/12/17 19:03:44;;;;;;;13.45;9.10;;;;;;;;;;4993886;28;20636;-42
2022/12/17 19:06:10;;;;;;;11.18;8.27;;;;;;;;;;4972012;28;20291;-45
2022/12/17 19:08:36;;;;;;;15.00;10.07;;;;;;;;;;4974836;28;20635;-44
2022/12/17 19:11:05;;;;;;;14.45;10.15;;;;;;;;;;4992088;28;20251;-42
2022/12/17 19:13:32;;;;;;;17.65;10.90;;;;;;;;;;4991544;28;20197;-42
2022/12/17 19:16:03;;;;;;;12.73;9.70;;;;;;;;;;4993046;28;20673;-42
2022/12/17 19:18:29;;;;;;;18.88;10.80;;;;;;;;;;4994642;28;20702;-42
2022/12/17 19:20:58;;;;;;;16.63;10.00;;;;;;;;;;4994513;28;20287;-42
2022/12/17 19:23:24;;;;;;;17.20;9.98;;;;;;;;;;4994483;28;20450;-44
2022/12/17 19:25:50;;;;;;;15.00;10.60;;;;;;;;;;4994394;28;20184;-44
2022/12/17 19:28:16;;;;;;;15.90;9.60;;;;;;;;;;4994155;28;20440;-42
2022/12/17 19:30:42;;;;;;;20.05;12.00;;;;;;;;;;4994410;28;20408;-42
2022/12/17 19:33:08;;;;;;;17.30;11.90;;;;;;;;;;4995877;28;20211;-44
2022/12/17 19:35:35;;;;;;;21.35;12.02;;;;;;;;;;4994252;28;20417;-43
2022/12/17 19:38:01;;;;;;;18.08;11.75;;;;;;;;;;4994051;28;20189;-45
2022/12/17 19:40:27;;;;;;;14.53;10.33;;;;;;;;;;4994247;28;20200;-44
2022/12/17 19:42:56;;;;;;;20.50;10.47;;;;;;;;;;4993973;28;20781;-43
2022/12/17 19:45:22;;;;;;;12.85;9.57;;;;;;;;;;4994140;28;20917;-44
2022/12/17 19:47:48;;;;;;;15.97;9.60;;;;;;;;;;4993864;28;20173;-45
2022/12/17 19:50:15;;;;;;;14.20;9.43;;;;;;;;;;4994140;28;20411;-44
2022/12/17 19:52:40;;;;;;;23.13;9.97;;;;;;;;;;4957331;28;1063796;-43
2022/12/17 19:55:07;;;;;;;13.10;9.40;;;;;;;;;;4995188;28;20187;-43
2022/12/17 19:57:36;;;;;;;14.57;9.85;;;;;;;;;;4993537;28;20432;-42
2022/12/17 20:00:02;;;;;;;12.85;8.23;;;;;;;;;;4994858;28;20231;-42
2022/12/17 20:02:28;;;;;;;13.13;8.73;;;;;;;;;;4995000;28;20658;-42
2022/12/17 20:04:54;;;;;;;14.17;10.43;;;;;;;;;;4994950;28;20188;-43
2022/12/17 20:07:19;;;;;;;14.10;9.03;;;;;;;;;;4995175;28;20406;-42
2022/12/17 20:09:45;;;;;;;18.00;9.13;;;;;;;;;;4994883;28;20436;-43
2022/12/17 20:12:12;;;;;;;15.20;9.10;;;;;;;;;;4997683;28;20400;-44
2022/12/17 20:14:38;;;;;;;12.68;8.73;;;;;;;;;;4994807;28;20416;-42
2022/12/17 20:17:04;;;;;;;13.17;8.60;;;;;;;;;;4995337;28;20183;-44
2022/12/17 20:19:32;;;;;;;15.77;9.13;;;;;;;;;;4994793;28;20419;-44
2022/12/17 20:22:01;;;;;;;13.63;8.68;;;;;;;;;;4994504;28;20204;-43
2022/12/17 20:24:27;;;;;;;14.60;7.45;;;;;;;;;;4994492;28;20176;-44
2022/12/17 20:26:54;;;;;;;13.20;8.65;;;;;;;;;;4994251;28;20230;-44
2022/12/17 20:29:20;;;;;;;10.95;7.05;;;;;;;;;;4994595;28;20180;-43
2022/12/17 20:31:46;;;;;;;8.40;7.38;;;;;;;;;;4994495;28;20526;-44
2022/12/17 20:34:13;;;;;;;13.23;8.00;;;;;;;;;;4994383;28;20251;-44
2022/12/17 20:36:39;;;;;;;13.40;6.72;;;;;;;;;;4994246;28;20604;-44
2022/12/17 20:39:05;;;;;;;14.70;7.97;;;;;;;;;;4994299;28;20185;-44
2022/12/17 20:41:31;;;;;;;10.18;7.55;;;;;;;;;;4994368;28;20291;-44
2022/12/17 20:43:58;;;;;;;13.57;7.47;;;;;;;;;;4994159;28;20189;-44
2022/12/17 20:46:24;;;;;;;10.85;8.63;;;;;;;;;;4994052;28;20831;-43
2022/12/17 20:48:51;;;;;;;11.88;7.70;;;;;;;;;;4994214;28;20235;-45
2022/12/17 20:51:21;;;;;;;14.38;6.70;;;;;;;;;;4993851;28;20195;-44
2022/12/17 20:53:49;;;;;;;12.20;7.53;;;;;;;;;;4993115;28;20224;-44
2022/12/17 20:56:16;;;;;;;10.35;7.90;;;;;;;;;;4993360;28;20185;-43
2022/12/17 20:58:42;;;;;;;12.73;8.90;;;;;;;;;;4993466;28;20181;-44
2022/12/17 21:01:10;;;;;;;12.37;7.87;;;;;;;;;;4993032;28;20447;-42
2022/12/17 21:03:36;;;;;;;10.20;8.02;;;;;;;;;;4988284;28;20443;-43
2022/12/17 21:06:13;;;;;;;12.93;9.10;;;;;;;;;;4993124;28;20192;-40
2022/12/17 21:08:39;;;;;;;11.50;9.02;;;;;;;;;;4993143;28;20404;-41
2022/12/17 21:11:06;;;;;;;11.80;9.05;;;;;;;;;;4994203;28;20189;-40
2022/12/17 21:13:32;;;;;;;12.77;7.47;;;;;;;;;;4993003;28;20233;-40
2022/12/17 21:15:59;;;;;;;10.27;7.90;;;;;;;;;;4993045;28;20177;-42
2022/12/17 21:18:26;;;;;;;14.32;9.93;;;;;;;;;;4993038;28;20185;-42
2022/12/17 21:20:59;;;;;;;14.23;8.35;;;;;;;;;;4992668;28;20228;-41
2022/12/17 21:23:25;;;;;;;13.70;8.90;;;;;;;;;;4992873;28;20287;-42
2022/12/17 21:26:01;;;;;;;12.65;7.55;;;;;;;;;;4992952;28;20176;-41
2022/12/17 21:28:28;;;;;;;7.65;6.13;;;;;;;;;;4992775;28;20307;-42
2022/12/17 21:30:54;;;;;;;16.98;7.03;;;;;;;;;;4992785;28;20231;-42
2022/12/17 21:33:20;;;;;;;9.33;7.37;;;;;;;;;;4992660;28;20256;-42
2022/12/17 21:35:46;;;;;;;9.85;7.40;;;;;;;;;;4992446;28;20414;-42
2022/12/17 21:38:13;;;;;;;14.18;8.02;;;;;;;;;;4992155;28;20177;-41
2022/12/17 21:40:39;;;;;;;10.57;6.47;;;;;;;;;;4992437;28;20675;-41
2022/12/17 21:43:05;;;;;;;8.33;6.20;;;;;;;;;;4992523;28;20291;-42
2022/12/17 21:45:36;;;;;;;5.87;4.90;;;;;;;;;;4992397;28;20412;-42
2022/12/17 21:48:02;;;;;;;7.65;6.13;;;;;;;;;;4992170;28;20467;-42
2022/12/17 21:50:28;;;;;;;8.07;5.85;;;;;;;;;;4992324;28;20263;-42
2022/12/17 21:52:54;;;;;;;10.23;6.10;;;;;;;;;;4992242;28;20307;-42
2022/12/17 21:55:20;;;;;;;6.17;5.37;;;;;;;;;;4992284;28;20416;-41
2022/12/17 21:57:46;;;;;;;6.77;6.13;;;;;;;;;;4992062;28;20419;-41
2022/12/17 22:00:12;;;;;;;6.47;5.60;;;;;;;;;;4992202;28;20578;-42
2022/12/17 22:02:38;;;;;;;6.93;5.53;;;;;;;;;;4991933;28;20945;-42
2022/12/17 22:05:04;;;;;;;8.30;5.40;;;;;;;;;;4992306;28;20251;-42
2022/12/17 22:07:31;;;;;;;6.93;5.80;;;;;;;;;;4991821;28;20467;-42
2022/12/17 22:09:57;;;;;;;5.88;5.28;;;;;;;;;;4986768;28;20209;-42
2022/12/17 22:15:09;;;;;;;8.43;4.93;;;;;;;;;;4991983;28;20403;-42
2022/12/17 22:17:35;;;;;;;6.57;4.22;;;;;;;;;;4991680;28;20551;-41
2022/12/17 22:20:01;;;;;;;5.72;5.30;;;;;;;;;;4991867;28;20212;-41
2022/12/17 22:22:28;;;;;;;4.43;3.70;;;;;;;;;;4991649;28;20247;-42
2022/12/17 22:24:57;;;;;;;7.22;5.03;;;;;;;;;;4991766;28;20828;-42
2022/12/17 22:27:23;;;;;;;4.63;4.07;;;;;;;;;;4991981;28;20173;-38
2022/12/17 22:35:18;;;;;;;4.90;3.80;;;;;;;;;;4992110;28;20254;-42
2022/12/17 22:37:44;;;;;;;5.60;4.37;;;;;;;;;;4991876;28;20184;-39
2022/12/17 22:40:11;;;;;;;11.00;5.10;;;;;;;;;;4992408;28;20969;-40
2022/12/17 22:45:21;;;;;;;5.43;4.93;;;;;;;;;;4992228;28;20727;-40
2022/12/17 22:47:47;;;;;;;5.17;4.63;;;;;;;;;;4991877;28;20267;-42
2022/12/17 22:50:13;;;;;;;6.03;5.40;;;;;;;;;;4991048;28;20836;-40
2022/12/17 22:52:39;;;;;;;5.80;5.20;;;;;;;;;;4991883;28;20267;-39
2022/12/17 22:55:06;;;;;;;8.90;5.60;;;;;;;;;;4992199;28;20852;-39
2022/12/17 22:57:32;;;;;;;9.07;5.45;;;;;;;;;;4991808;28;20976;-40
2022/12/17 22:59:57;;;;;;;8.13;5.53;;;;;;;;;;4991926;28;20173;-40
2022/12/17 23:02:23;;;;;;;6.50;4.43;;;;;;;;;;4992014;28;20779;-40
2022/12/17 23:04:49;;;;;;;6.10;5.55;;;;;;;;;;4993497;28;20506;-40
2022/12/17 23:07:15;;;;;;;9.10;4.87;;;;;;;;;;5003736;28;20185;-40
2022/12/17 23:09:41;;;;;;;7.57;5.78;;;;;;;;;;5004358;28;20916;-40
2022/12/17 23:14:52;;;;;;;7.15;4.82;;;;;;;;;;4995068;28;20945;-40
2022/12/17 23:17:18;;;;;;;5.03;4.57;;;;;;;;;;5003100;28;20176;-40
2022/12/17 23:19:44;;;;;;;7.70;4.43;;;;;;;;;;5001217;28;20419;-41
2022/12/17 23:22:10;;;;;;;5.23;4.73;;;;;;;;;;5002251;28;20488;-42
2022/12/17 23:24:36;;;;;;;9.10;4.60;;;;;;;;;;4999559;28;20420;-41
2022/12/17 23:27:02;;;;;;;5.53;5.10;;;;;;;;;;5002227;28;20507;-40
2022/12/17 23:29:28;;;;;;;4.50;4.10;;;;;;;;;;5000214;28;20424;-40
2022/12/17 23:31:53;;;;;;;4.40;4.00;;;;;;;;;;5000618;28;20851;-41
2022/12/17 23:34:19;;;;;;;5.90;3.83;;;;;;;;;;5003939;28;20840;-41
2022/12/17 23:36:45;;;;;;;4.33;3.93;;;;;;;;;;4999803;28;20781;-40
2022/12/17 23:39:11;;;;;;;5.40;4.90;;;;;;;;;;5001402;28;20778;-41
2022/12/17 23:41:37;;;;;;;5.70;5.10;;;;;;;;;;5000013;28;20840;-40
2022/12/17 23:44:04;;;;;;;5.53;4.40;;;;;;;;;;5000795;28;20424;-40
2022/12/17 23:46:30;;;;;;;8.88;4.25;;;;;;;;;;4999319;28;20873;-41
2022/12/17 23:48:56;;;;;;;7.28;4.57;;;;;;;;;;5006009;28;20176;-41
2022/12/17 23:51:23;;;;;;;5.22;4.43;;;;;;;;;;5002735;28;20603;-40
2022/12/17 23:53:49;;;;;;;5.00;4.30;;;;;;;;;;4997902;28;20212;-40
2022/12/17 23:56:17;;;;;;;5.65;4.32;;;;;;;;;;4998941;28;20185;-40
2022/12/17 23:58:44;;;;;;;4.22;3.83;;;;;;;;;;5000762;28;20184;-39
